Time;durP1;ratioP1;P1;durP2;ratioP2;P2;SDS_P1;SDS_P2;PMS_P1;PMS_P2;Temp;Humidity;BMP_temperature;BMP_pressure;BME280_temperature;BME280_humidity;BME280_pressure;Samples;Min_cycle;Max_cycle;Signal;HPM_P1;HPM_P2
2022/01/15 00:00:00;;;;;;;51.20;33.75;;;1.90;82.40;;;;;;5019050;28;20050;-86
2022/01/15 00:02:27;;;;;;;51.10;32.97;;;1.90;82.40;;;;;;5018445;28;20042;-86
2022/01/15 00:04:54;;;;;;;49.20;34.88;;;1.90;82.40;;;;;;5018775;28;20052;-85
2022/01/15 00:07:21;;;;;;;55.05;36.67;;;1.90;82.50;;;;;;5015231;28;20045;-85
2022/01/15 00:09:50;;;;;;;54.17;37.17;;;1.90;82.50;;;;;;5018265;28;20062;-84
2022/01/15 00:12:17;;;;;;;53.03;35.03;;;1.90;82.50;;;;;;5018395;28;20056;-85
2022/01/15 00:14:45;;;;;;;52.08;35.30;;;1.90;82.60;;;;;;5018613;28;20057;-84
2022/01/15 00:17:19;;;;;;;59.15;39.47;;;1.90;82.60;;;;;;5018252;28;20407;-84
2022/01/15 00:19:47;;;;;;;58.72;37.63;;;1.90;82.60;;;;;;5016499;28;20052;-85
2022/01/15 00:22:17;;;;;;;58.17;38.75;;;1.90;82.60;;;;;;5016882;28;20052;-85
2022/01/15 00:24:45;;;;;;;55.22;39.42;;;1.90;82.60;;;;;;5018224;28;20054;-85
2022/01/15 00:27:13;;;;;;;57.80;39.13;;;1.90;82.60;;;;;;5017830;28;20414;-85
2022/01/15 00:29:40;;;;;;;61.70;41.85;;;1.90;82.60;;;;;;5018209;28;20418;-85
2022/01/15 00:32:08;;;;;;;58.28;39.80;;;1.90;82.60;;;;;;5017757;28;20061;-85
2022/01/15 00:34:35;;;;;;;63.67;42.25;;;1.90;82.70;;;;;;5014326;28;20052;-85
2022/01/15 00:37:03;;;;;;;56.13;40.70;;;1.90;82.70;;;;;;5017031;28;20120;-85
2022/01/15 00:39:30;;;;;;;59.70;42.97;;;1.90;82.70;;;;;;5012957;28;20582;-84
2022/01/15 00:41:58;;;;;;;59.75;42.55;;;1.90;82.70;;;;;;5017601;28;20132;-84
2022/01/15 00:44:25;;;;;;;60.40;41.85;;;1.90;82.70;;;;;;5018062;28;20058;-84
2022/01/15 00:46:52;;;;;;;56.90;43.28;;;1.90;82.70;;;;;;5016907;28;20048;-85
2022/01/15 00:49:19;;;;;;;55.85;42.22;;;1.90;82.80;;;;;;5016010;28;20060;-85
2022/01/15 00:51:46;;;;;;;56.53;42.05;;;1.90;82.80;;;;;;5018356;28;20041;-85
2022/01/15 00:54:13;;;;;;;58.28;44.38;;;1.90;82.80;;;;;;5018558;28;20452;-85
2022/01/15 00:56:40;;;;;;;62.13;44.13;;;1.90;82.80;;;;;;5023052;28;20041;-85
2022/01/15 00:59:08;;;;;;;57.75;43.70;;;1.90;82.90;;;;;;5031467;28;20048;-85
2022/01/15 01:01:35;;;;;;;55.15;44.00;;;1.90;82.90;;;;;;5031409;28;20495;-85
2022/01/15 01:04:03;;;;;;;55.28;42.35;;;1.90;82.90;;;;;;5033266;28;20049;-85
2022/01/15 01:06:30;;;;;;;54.55;44.20;;;1.90;82.90;;;;;;5030491;28;20050;-85
2022/01/15 01:08:57;;;;;;;60.88;43.88;;;1.90;82.90;;;;;;5030074;28;20510;-85
2022/01/15 01:11:43;;;;;;;55.97;43.35;;;1.90;82.90;;;;;;5030810;28;20049;-85
2022/01/15 01:24:54;;;;;;;59.85;41.65;;;1.80;83.00;;;;;;5032334;28;20049;-86
2022/01/15 01:27:29;;;;;;;51.72;39.75;;;1.80;83.10;;;;;;5033691;28;20506;-85
2022/01/15 01:30:11;;;;;;;52.47;39.60;;;1.80;83.10;;;;;;5033848;28;20508;-85
2022/01/15 01:32:53;;;;;;;54.80;39.35;;;1.70;83.10;;;;;;5035153;28;20057;-85
2022/01/15 01:35:35;;;;;;;52.28;40.00;;;1.70;83.10;;;;;;5033528;28;20129;-85
2022/01/15 01:38:12;;;;;;;52.20;38.40;;;1.70;83.20;;;;;;5033886;28;20153;-85
2022/01/15 01:40:45;;;;;;;51.90;37.47;;;1.70;83.20;;;;;;5017644;28;20051;-85
2022/01/15 01:46:10;;;;;;;48.03;36.78;;;1.60;83.20;;;;;;5031363;28;20124;-85
2022/01/15 01:48:38;;;;;;;48.50;37.38;;;1.70;83.20;;;;;;5034185;28;20049;-85
2022/01/15 01:51:08;;;;;;;50.08;35.90;;;1.60;83.30;;;;;;5033330;28;20048;-85
2022/01/15 01:53:35;;;;;;;51.10;36.08;;;1.60;83.30;;;;;;5033158;28;20041;-86
2022/01/15 01:56:04;;;;;;;46.75;34.50;;;1.70;83.30;;;;;;5033459;28;20045;-87
2022/01/15 01:58:31;;;;;;;46.50;34.58;;;1.60;83.30;;;;;;5017183;28;20037;-85
2022/01/15 02:00:58;;;;;;;44.63;33.90;;;1.60;83.30;;;;;;5027136;28;20055;-85
2022/01/15 02:03:25;;;;;;;48.40;34.58;;;1.60;83.30;;;;;;5033249;28;20096;-85
2022/01/15 02:05:53;;;;;;;50.35;37.53;;;1.60;83.30;;;;;;5034996;28;20049;-85
2022/01/15 02:08:20;;;;;;;49.03;37.65;;;1.50;83.40;;;;;;5032758;28;20410;-84
2022/01/15 02:10:47;;;;;;;48.58;36.65;;;1.50;83.40;;;;;;5033253;28;20535;-85
2022/01/15 02:13:14;;;;;;;48.95;35.38;;;1.50;83.40;;;;;;5032915;28;20060;-86
2022/01/15 02:15:41;;;;;;;48.78;35.38;;;1.50;83.40;;;;;;5030148;28;20143;-86
2022/01/15 02:18:09;;;;;;;49.95;35.05;;;1.50;83.40;;;;;;5033079;28;20041;-86
2022/01/15 02:20:59;;;;;;;45.22;34.60;;;1.50;83.40;;;;;;5032964;28;20422;-85
2022/01/15 02:23:33;;;;;;;49.40;35.65;;;1.50;83.50;;;;;;5032731;28;20041;-85
2022/01/15 02:26:05;;;;;;;49.78;35.50;;;1.40;83.50;;;;;;5033168;28;20124;-85
2022/01/15 02:28:39;;;;;;;44.58;34.40;;;1.40;83.50;;;;;;5017595;28;20045;-84
2022/01/15 02:31:17;;;;;;;44.30;33.65;;;1.40;83.50;;;;;;5031228;28;20417;-85
2022/01/15 02:33:46;;;;;;;46.63;34.42;;;1.40;83.60;;;;;;5030353;28;20418;-84
2022/01/15 02:36:18;;;;;;;45.72;32.70;;;1.40;83.60;;;;;;5032888;28;20069;-85
2022/01/15 02:38:46;;;;;;;45.97;33.30;;;1.40;83.60;;;;;;5032449;28;20502;-84
2022/01/15 02:41:14;;;;;;;43.50;33.35;;;1.40;83.70;;;;;;5033018;28;20045;-86
2022/01/15 02:43:42;;;;;;;47.30;31.65;;;1.40;83.70;;;;;;5032974;28;20044;-85
2022/01/15 02:48:48;;;;;;;39.55;30.95;;;1.40;83.70;;;;;;5030643;28;20103;-85
2022/01/15 02:51:17;;;;;;;39.22;29.85;;;1.40;83.80;;;;;;5031530;28;20517;-85
2022/01/15 02:53:46;;;;;;;37.05;29.23;;;1.40;83.70;;;;;;5032713;28;20045;-85
2022/01/15 02:56:13;;;;;;;43.83;29.58;;;1.40;83.80;;;;;;5031379;28;20056;-84
2022/01/15 02:58:41;;;;;;;37.10;29.55;;;1.40;83.80;;;;;;5032775;28;20418;-85
2022/01/15 03:01:08;;;;;;;37.15;29.92;;;1.40;83.80;;;;;;5031810;28;20046;-85
2022/01/15 03:03:35;;;;;;;41.97;28.45;;;1.30;83.80;;;;;;5032586;28;20239;-85
2022/01/15 03:06:03;;;;;;;35.47;28.85;;;1.40;83.90;;;;;;5033892;28;20076;-86
2022/01/15 03:08:32;;;;;;;40.17;28.58;;;1.40;83.90;;;;;;5032272;28;20054;-84
2022/01/15 03:11:00;;;;;;;38.40;29.00;;;1.40;83.90;;;;;;5067653;28;20046;-85
2022/01/15 03:13:27;;;;;;;36.15;27.88;;;1.30;83.90;;;;;;5068006;28;20048;-85
2022/01/15 03:15:54;;;;;;;34.67;26.45;;;1.30;83.90;;;;;;5034103;28;20049;-85
2022/01/15 03:18:22;;;;;;;33.53;26.40;;;1.40;83.90;;;;;;5036196;28;20049;-85
2022/01/15 03:20:49;;;;;;;33.15;25.23;;;1.30;84.00;;;;;;5034601;28;20426;-85
2022/01/15 03:23:16;;;;;;;35.95;27.00;;;1.30;84.00;;;;;;5036245;28;20053;-85
2022/01/15 03:25:44;;;;;;;31.23;24.85;;;1.40;84.00;;;;;;5036068;28;20502;-85
2022/01/15 03:28:11;;;;;;;35.25;25.30;;;1.30;84.00;;;;;;5035493;28;20056;-85
2022/01/15 03:30:38;;;;;;;30.92;24.67;;;1.30;84.00;;;;;;5034345;28;20068;-85
2022/01/15 03:33:06;;;;;;;31.80;24.55;;;1.30;84.00;;;;;;5035869;28;20068;-84
2022/01/15 03:35:35;;;;;;;31.98;24.02;;;1.30;84.00;;;;;;5034289;28;20051;-85
2022/01/15 03:38:04;;;;;;;30.13;23.73;;;1.30;84.10;;;;;;5036303;28;20045;-85
2022/01/15 03:40:32;;;;;;;31.05;24.45;;;1.30;84.10;;;;;;5020422;28;20053;-87
2022/01/15 03:42:59;;;;;;;32.13;24.83;;;1.30;84.10;;;;;;5029949;28;20045;-87
2022/01/15 03:45:27;;;;;;;32.95;24.35;;;1.30;84.10;;;;;;5035766;28;20505;-85
2022/01/15 03:47:56;;;;;;;30.80;24.30;;;1.30;84.10;;;;;;5035565;28;20048;-84
2022/01/15 03:50:25;;;;;;;31.42;24.13;;;1.20;84.20;;;;;;5035290;28;20052;-85
2022/01/15 03:52:53;;;;;;;30.05;22.60;;;1.30;84.20;;;;;;5035726;28;20715;-85
2022/01/15 03:55:22;;;;;;;32.90;23.98;;;1.30;84.20;;;;;;5036159;28;20057;-84
2022/01/15 03:57:49;;;;;;;30.73;23.90;;;1.30;84.20;;;;;;5034812;28;20046;-86
2022/01/15 04:00:20;;;;;;;33.15;23.60;;;1.30;84.20;;;;;;5035525;28;20041;-85
2022/01/15 04:02:48;;;;;;;38.65;24.60;;;1.30;84.30;;;;;;5035364;28;20421;-85
2022/01/15 04:05:16;;;;;;;44.85;24.23;;;1.20;84.30;;;;;;5033828;28;20132;-85
2022/01/15 04:07:43;;;;;;;34.53;24.08;;;1.30;84.30;;;;;;5035409;28;20050;-85
2022/01/15 04:10:12;;;;;;;32.22;24.55;;;1.20;84.30;;;;;;5034703;28;20064;-85
2022/01/15 04:12:39;;;;;;;29.90;24.42;;;1.20;84.30;;;;;;5034525;28;20045;-85
2022/01/15 04:15:08;;;;;;;30.95;23.23;;;1.30;84.30;;;;;;5035050;28;20057;-85
2022/01/15 04:17:35;;;;;;;30.55;23.23;;;1.20;84.30;;;;;;5035134;28;20042;-85
2022/01/15 04:20:04;;;;;;;29.15;22.60;;;1.20;84.40;;;;;;5034828;28;20052;-85
2022/01/15 04:22:31;;;;;;;32.33;24.45;;;1.30;84.40;;;;;;5018924;28;20041;-85
2022/01/15 04:24:58;;;;;;;38.92;22.88;;;1.20;84.40;;;;;;5030290;28;20092;-85
2022/01/15 04:27:25;;;;;;;32.22;24.15;;;1.20;84.40;;;;;;5034777;28;20051;-85
2022/01/15 04:29:55;;;;;;;31.20;23.55;;;1.30;84.40;;;;;;5034841;28;20063;-85
2022/01/15 04:32:22;;;;;;;33.55;23.98;;;1.30;84.40;;;;;;5034802;28;20056;-85
2022/01/15 04:34:49;;;;;;;27.42;21.95;;;1.20;84.40;;;;;;5034426;28;20051;-85
2022/01/15 04:37:20;;;;;;;32.50;23.67;;;1.20;84.40;;;;;;5033690;28;20065;-85
2022/01/15 04:39:47;;;;;;;32.63;24.15;;;1.30;84.40;;;;;;5032885;28;20049;-87
2022/01/15 04:42:20;;;;;;;41.60;23.70;;;1.20;84.40;;;;;;5034601;28;20051;-87
2022/01/15 04:44:48;;;;;;;34.07;24.83;;;1.20;84.50;;;;;;5036127;28;20041;-86
2022/01/15 04:47:15;;;;;;;29.98;22.95;;;1.30;84.50;;;;;;5034541;28;20495;-86
2022/01/15 04:49:42;;;;;;;29.95;24.10;;;1.20;84.50;;;;;;5035407;28;20528;-85
2022/01/15 04:52:09;;;;;;;43.97;23.67;;;1.20;84.50;;;;;;5033722;28;20042;-85
2022/01/15 04:54:36;;;;;;;29.15;23.15;;;1.20;84.50;;;;;;5034127;28;20415;-85
2022/01/15 04:57:04;;;;;;;30.95;22.60;;;1.30;84.50;;;;;;5034270;28;20046;-85
2022/01/15 04:59:31;;;;;;;28.45;23.60;;;1.20;84.50;;;;;;5034387;28;20052;-85
2022/01/15 05:01:58;;;;;;;30.88;24.42;;;1.20;84.50;;;;;;5034101;28;20052;-85
2022/01/15 05:04:25;;;;;;;27.95;22.95;;;1.20;84.50;;;;;;5034284;28;20041;-85
2022/01/15 05:06:52;;;;;;;34.78;24.17;;;1.20;84.50;;;;;;5033414;28;20418;-85
2022/01/15 05:09:19;;;;;;;31.00;23.08;;;1.20;84.50;;;;;;5034021;28;20060;-85
2022/01/15 05:11:49;;;;;;;30.92;23.60;;;1.20;84.60;;;;;;5034131;28;20041;-85
2022/01/15 05:14:18;;;;;;;29.00;22.77;;;1.20;84.60;;;;;;5034002;28;20134;-85
2022/01/15 05:16:45;;;;;;;29.23;23.55;;;1.20;84.60;;;;;;5033600;28;20045;-86
2022/01/15 05:19:12;;;;;;;29.55;23.40;;;1.20;84.60;;;;;;5033689;28;20049;-85
2022/01/15 05:21:39;;;;;;;29.02;23.30;;;1.20;84.60;;;;;;5033286;28;20064;-85
2022/01/15 05:24:07;;;;;;;30.63;24.52;;;1.20;84.60;;;;;;5033956;28;20045;-85
2022/01/15 05:26:34;;;;;;;29.88;24.05;;;1.20;84.60;;;;;;5033786;28;20042;-84
2022/01/15 05:29:02;;;;;;;32.15;24.10;;;1.20;84.60;;;;;;5033978;28;20049;-85
2022/01/15 05:31:29;;;;;;;32.25;25.02;;;1.20;84.60;;;;;;5033577;28;20049;-86
2022/01/15 05:33:56;;;;;;;33.05;24.23;;;1.20;84.60;;;;;;5032057;28;20148;-86
2022/01/15 05:36:23;;;;;;;32.88;25.13;;;1.20;84.60;;;;;;5033644;28;20421;-86
2022/01/15 05:38:51;;;;;;;31.85;24.52;;;1.20;84.60;;;;;;5033519;28;20516;-86
2022/01/15 05:41:19;;;;;;;30.33;24.10;;;1.20;84.60;;;;;;5033574;28;20048;-86
2022/01/15 05:43:46;;;;;;;29.98;23.40;;;1.10;84.60;;;;;;5033883;28;20046;-85
2022/01/15 05:46:13;;;;;;;34.67;25.15;;;1.10;84.60;;;;;;5032964;28;20425;-86
2022/01/15 05:48:40;;;;;;;36.65;26.00;;;1.10;84.70;;;;;;5032802;28;20052;-85
2022/01/15 05:51:07;;;;;;;31.52;23.38;;;1.10;84.60;;;;;;5033482;28;20041;-85
2022/01/15 05:53:34;;;;;;;30.10;23.92;;;1.10;84.70;;;;;;5033410;28;20044;-86
2022/01/15 05:56:01;;;;;;;32.65;24.75;;;1.10;84.60;;;;;;5033226;28;20059;-85
2022/01/15 05:58:28;;;;;;;31.05;24.67;;;1.10;84.70;;;;;;5033643;28;20059;-85
2022/01/15 06:00:55;;;;;;;31.38;25.23;;;1.10;84.70;;;;;;5032243;28;20506;-85
2022/01/15 06:03:22;;;;;;;29.27;24.02;;;1.10;84.70;;;;;;5033182;28;20045;-86
2022/01/15 06:05:49;;;;;;;29.50;24.08;;;1.10;84.70;;;;;;5033131;28;20474;-86
2022/01/15 06:08:17;;;;;;;28.88;23.85;;;1.00;84.70;;;;;;5032851;28;20049;-86
2022/01/15 06:10:44;;;;;;;30.15;23.75;;;1.00;84.70;;;;;;5033278;28;20050;-85
2022/01/15 06:13:11;;;;;;;32.22;24.98;;;1.10;84.70;;;;;;5032737;28;20052;-86
2022/01/15 06:15:38;;;;;;;32.13;24.88;;;1.00;84.70;;;;;;5032127;28;20063;-85
2022/01/15 06:18:05;;;;;;;32.15;23.65;;;1.00;84.70;;;;;;5033106;28;20052;-85
2022/01/15 06:20:32;;;;;;;30.77;24.50;;;1.00;84.70;;;;;;5032963;28;20041;-85
2022/01/15 06:22:59;;;;;;;32.58;25.20;;;1.00;84.70;;;;;;5033319;28;20049;-85
2022/01/15 06:25:26;;;;;;;33.35;25.73;;;1.00;84.70;;;;;;5033060;28;20075;-85
2022/01/15 06:27:53;;;;;;;38.55;26.38;;;1.00;84.70;;;;;;5032184;28;20052;-85
2022/01/15 06:30:21;;;;;;;29.90;24.33;;;1.00;84.70;;;;;;5032698;28;20050;-85
2022/01/15 06:32:48;;;;;;;35.83;25.13;;;1.00;84.70;;;;;;5032816;28;20045;-86
2022/01/15 06:35:17;;;;;;;33.65;25.35;;;1.00;84.70;;;;;;5032992;28;20072;-85
2022/01/15 06:37:48;;;;;;;34.67;24.85;;;1.00;84.70;;;;;;5033044;28;20125;-86
2022/01/15 06:40:16;;;;;;;33.47;25.33;;;1.00;84.70;;;;;;5032964;28;20054;-85
2022/01/15 06:42:43;;;;;;;33.75;24.63;;;1.00;84.70;;;;;;5030117;28;20046;-86
2022/01/15 06:45:11;;;;;;;30.50;24.88;;;0.90;84.70;;;;;;5034468;28;20052;-86
2022/01/15 06:47:38;;;;;;;31.58;25.92;;;1.00;84.80;;;;;;5036701;28;20057;-85
2022/01/15 06:50:08;;;;;;;33.70;25.67;;;1.00;84.80;;;;;;5038131;28;20060;-86
2022/01/15 06:52:36;;;;;;;31.90;26.35;;;1.00;84.80;;;;;;5036842;28;20045;-86
2022/01/15 06:55:05;;;;;;;30.35;25.08;;;0.90;84.80;;;;;;5035968;28;20056;-85
2022/01/15 06:57:32;;;;;;;30.80;24.90;;;0.90;84.80;;;;;;5036708;28;20053;-85
2022/01/15 07:00:01;;;;;;;34.47;25.27;;;0.90;84.80;;;;;;5037888;28;20037;-85
2022/01/15 07:02:28;;;;;;;38.97;25.95;;;1.00;84.80;;;;;;5036484;28;20053;-86
2022/01/15 07:04:55;;;;;;;33.75;24.83;;;0.90;84.80;;;;;;5036627;28;20042;-86
2022/01/15 07:07:23;;;;;;;32.75;25.60;;;0.90;84.80;;;;;;5036408;28;20049;-86
2022/01/15 07:09:50;;;;;;;33.50;25.95;;;0.90;84.80;;;;;;5035726;28;20490;-85
2022/01/15 07:12:17;;;;;;;34.70;25.73;;;0.90;84.80;;;;;;5036361;28;20045;-86
2022/01/15 07:14:44;;;;;;;31.75;25.33;;;0.90;84.80;;;;;;5036224;28;20041;-87
2022/01/15 07:17:12;;;;;;;30.90;25.88;;;0.90;84.70;;;;;;5037683;28;20569;-86
2022/01/15 07:19:39;;;;;;;31.25;24.90;;;0.90;84.80;;;;;;5036484;28;20048;-86
2022/01/15 07:22:07;;;;;;;31.83;25.65;;;0.90;84.70;;;;;;5035362;28;20050;-86
2022/01/15 07:24:34;;;;;;;32.22;24.63;;;0.90;84.70;;;;;;5036409;28;20081;-86
2022/01/15 07:27:03;;;;;;;30.20;25.38;;;0.90;84.70;;;;;;5035639;28;20475;-86
2022/01/15 07:29:31;;;;;;;30.60;25.27;;;0.90;84.70;;;;;;5036116;28;20058;-86
2022/01/15 07:31:58;;;;;;;32.25;26.48;;;0.80;84.70;;;;;;5036089;28;20042;-86
2022/01/15 07:34:25;;;;;;;31.08;25.88;;;0.80;84.70;;;;;;5036267;28;20053;-86
2022/01/15 07:36:57;;;;;;;32.30;25.58;;;0.80;84.70;;;;;;5035320;28;20065;-86
2022/01/15 07:39:25;;;;;;;29.33;24.05;;;0.80;84.70;;;;;;5037082;28;20503;-86
2022/01/15 07:41:55;;;;;;;31.00;25.08;;;0.80;84.70;;;;;;5037141;28;20537;-86
2022/01/15 07:44:22;;;;;;;34.15;26.08;;;0.80;84.70;;;;;;5035835;28;20068;-85
2022/01/15 07:46:49;;;;;;;32.03;25.27;;;0.70;84.70;;;;;;5035926;28;20054;-85
2022/01/15 07:49:17;;;;;;;32.90;26.42;;;0.70;84.70;;;;;;5036017;28;20049;-85
2022/01/15 07:51:44;;;;;;;34.53;26.70;;;0.70;84.70;;;;;;5035178;28;20046;-85
2022/01/15 07:54:11;;;;;;;36.55;27.15;;;0.70;84.70;;;;;;5032585;28;20038;-85
2022/01/15 07:56:38;;;;;;;33.88;26.15;;;0.70;84.70;;;;;;5034092;28;20046;-86
2022/01/15 07:59:05;;;;;;;30.75;24.70;;;0.70;84.70;;;;;;5034747;28;20122;-85
2022/01/15 08:01:32;;;;;;;32.33;26.10;;;0.70;84.70;;;;;;5036878;28;20049;-85
2022/01/15 08:04:02;;;;;;;33.33;25.48;;;0.70;84.70;;;;;;5038496;28;20133;-87
2022/01/15 08:06:29;;;;;;;32.95;26.63;;;0.70;84.70;;;;;;5035188;28;20052;-86
2022/01/15 08:08:56;;;;;;;32.10;25.90;;;0.70;84.80;;;;;;5034838;28;20425;-87
2022/01/15 08:11:23;;;;;;;32.25;26.55;;;0.70;84.70;;;;;;5034440;28;20046;-86
2022/01/15 08:13:50;;;;;;;33.97;25.95;;;0.70;84.70;;;;;;5034916;28;20472;-86
2022/01/15 08:16:17;;;;;;;31.65;25.40;;;0.70;84.70;;;;;;5033518;28;20052;-86
2022/01/15 08:18:45;;;;;;;33.08;25.67;;;0.60;84.70;;;;;;5034184;28;20058;-86
2022/01/15 08:21:12;;;;;;;33.88;26.23;;;0.60;84.70;;;;;;5034485;28;20417;-86
2022/01/15 08:23:39;;;;;;;34.97;26.08;;;0.70;84.70;;;;;;5034731;28;20045;-85
2022/01/15 08:26:06;;;;;;;33.58;26.58;;;0.60;84.70;;;;;;5034413;28;20080;-85
2022/01/15 08:28:33;;;;;;;32.03;25.52;;;0.60;84.80;;;;;;5034795;28;20045;-85
2022/01/15 08:31:00;;;;;;;34.15;27.02;;;0.70;84.80;;;;;;5034043;28;20049;-85
2022/01/15 08:33:27;;;;;;;31.50;25.98;;;0.60;84.70;;;;;;5036149;28;20057;-85
2022/01/15 08:35:54;;;;;;;31.38;25.58;;;0.60;84.70;;;;;;5034133;28;20493;-86
2022/01/15 08:38:21;;;;;;;33.95;26.30;;;0.60;84.70;;;;;;5034667;28;20071;-85
2022/01/15 08:40:49;;;;;;;33.50;26.15;;;0.60;84.80;;;;;;5034277;28;20045;-86
2022/01/15 08:43:17;;;;;;;46.40;25.90;;;0.60;84.80;;;;;;5034106;28;20045;-85
2022/01/15 08:45:46;;;;;;;37.20;27.65;;;0.60;84.80;;;;;;5047134;28;20076;-86
2022/01/15 08:48:19;;;;;;;36.70;26.85;;;0.60;84.80;;;;;;5034202;28;20580;-85
2022/01/15 08:50:49;;;;;;;32.83;26.80;;;0.60;84.70;;;;;;5034053;28;20096;-85
2022/01/15 08:53:18;;;;;;;34.20;26.75;;;0.60;84.70;;;;;;5034265;28;20045;-85
2022/01/15 08:55:45;;;;;;;34.97;27.10;;;0.60;84.80;;;;;;5033705;28;20049;-86
2022/01/15 08:58:12;;;;;;;39.83;27.45;;;0.60;84.80;;;;;;5033321;28;20057;-85
2022/01/15 09:00:40;;;;;;;37.95;26.42;;;0.60;84.80;;;;;;5033507;28;20049;-86
2022/01/15 09:03:08;;;;;;;32.70;26.10;;;0.60;84.80;;;;;;5034098;28;20044;-85
2022/01/15 09:05:36;;;;;;;45.88;27.27;;;0.60;84.80;;;;;;5033505;28;20115;-86
2022/01/15 09:08:08;;;;;;;36.10;28.13;;;0.60;84.80;;;;;;5033940;28;20057;-85
2022/01/15 09:10:41;;;;;;;35.72;26.70;;;0.60;84.80;;;;;;5017379;28;20041;-85
2022/01/15 09:13:12;;;;;;;37.35;26.50;;;0.60;84.80;;;;;;5032698;28;20409;-85
2022/01/15 09:15:39;;;;;;;48.35;30.25;;;0.60;84.80;;;;;;5034992;28;20053;-85
2022/01/15 09:18:06;;;;;;;37.20;26.63;;;0.60;84.80;;;;;;5034012;28;20041;-85
2022/01/15 09:20:33;;;;;;;37.25;27.70;;;0.60;84.80;;;;;;5033976;28;20064;-84
2022/01/15 09:23:01;;;;;;;34.67;27.00;;;0.60;84.80;;;;;;5033526;28;20049;-86
2022/01/15 09:25:28;;;;;;;35.50;26.45;;;0.60;84.80;;;;;;5033997;28;20412;-86
2022/01/15 09:30:42;;;;;;;34.10;27.48;;;0.60;84.80;;;;;;5030977;28;20048;-85
2022/01/15 09:33:09;;;;;;;35.58;28.70;;;0.60;84.80;;;;;;5033844;28;20045;-84
2022/01/15 09:35:37;;;;;;;34.92;28.08;;;0.60;84.80;;;;;;5033680;28;20041;-85
2022/01/15 09:38:05;;;;;;;35.50;28.17;;;0.60;84.80;;;;;;5035075;28;20045;-85
2022/01/15 09:40:32;;;;;;;35.50;27.80;;;0.60;84.90;;;;;;5018256;28;20044;-85
2022/01/15 09:42:59;;;;;;;34.63;27.08;;;0.60;84.90;;;;;;5028763;28;20415;-85
2022/01/15 09:45:27;;;;;;;33.17;26.55;;;0.70;84.90;;;;;;5033609;28;20042;-85
2022/01/15 09:48:02;;;;;;;32.75;26.10;;;0.70;84.90;;;;;;5033728;28;20045;-86
2022/01/15 09:50:32;;;;;;;35.67;27.42;;;0.70;84.90;;;;;;5033681;28;20037;-86
2022/01/15 09:52:59;;;;;;;35.22;27.48;;;0.60;84.80;;;;;;5066428;28;20052;-86
2022/01/15 09:55:27;;;;;;;35.78;28.02;;;0.70;84.80;;;;;;5033341;28;20506;-86
2022/01/15 09:57:55;;;;;;;35.55;27.65;;;0.70;84.90;;;;;;5032521;28;20095;-84
2022/01/15 10:00:23;;;;;;;34.90;28.10;;;0.70;84.90;;;;;;5033375;28;20406;-85
2022/01/15 10:02:52;;;;;;;34.63;27.52;;;0.70;84.90;;;;;;5033229;28;20453;-85
2022/01/15 10:05:20;;;;;;;33.65;27.65;;;0.70;84.90;;;;;;5033240;28;20494;-87
2022/01/15 10:07:57;;;;;;;35.38;27.60;;;0.70;84.80;;;;;;5033021;28;20041;-85
2022/01/15 10:10:25;;;;;;;39.25;27.42;;;0.70;84.80;;;;;;5033298;28;20048;-85
2022/01/15 10:12:53;;;;;;;40.80;27.63;;;0.70;84.80;;;;;;5032508;28;20506;-86
2022/01/15 10:15:20;;;;;;;33.08;27.20;;;0.70;84.80;;;;;;5064918;28;20056;-86
2022/01/15 10:17:48;;;;;;;33.47;27.38;;;0.70;84.80;;;;;;5032963;28;20053;-86
2022/01/15 10:20:22;;;;;;;34.80;26.70;;;0.80;84.80;;;;;;5032622;28;20541;-87
2022/01/15 10:22:51;;;;;;;31.90;26.63;;;0.80;84.80;;;;;;5032897;28;20067;-87
2022/01/15 10:25:21;;;;;;;33.17;26.85;;;0.80;84.80;;;;;;5033106;28;20096;-86
2022/01/15 10:27:54;;;;;;;34.47;27.95;;;0.70;84.80;;;;;;5032262;28;20053;-87
2022/01/15 10:30:26;;;;;;;37.83;27.45;;;0.80;84.80;;;;;;5033022;28;20061;-88
2022/01/15 10:33:04;;;;;;;36.08;29.05;;;0.80;84.80;;;;;;5032910;28;20052;-87
2022/01/15 10:35:40;;;;;;;34.78;27.77;;;0.80;84.80;;;;;;5031334;28;20044;-87
2022/01/15 10:38:14;;;;;;;34.40;27.63;;;0.80;84.80;;;;;;5032892;28;20050;-86
2022/01/15 10:40:50;;;;;;;35.63;27.88;;;0.80;84.80;;;;;;5032849;28;20403;-86
2022/01/15 10:43:19;;;;;;;35.97;27.00;;;0.80;84.80;;;;;;5031867;28;20050;-88
2022/01/15 10:45:56;;;;;;;36.55;27.60;;;0.80;84.80;;;;;;5032245;28;20096;-87
2022/01/15 10:48:33;;;;;;;36.25;28.77;;;0.90;84.90;;;;;;5031673;28;20140;-87
2022/01/15 10:51:10;;;;;;;35.17;28.15;;;0.90;84.90;;;;;;5032416;28;20478;-86
2022/01/15 10:53:38;;;;;;;38.17;28.10;;;0.90;84.90;;;;;;5032807;28;20111;-86
2022/01/15 10:56:07;;;;;;;34.65;27.83;;;0.90;84.90;;;;;;5032816;28;20045;-85
2022/01/15 10:58:36;;;;;;;39.72;30.27;;;0.90;84.90;;;;;;5032812;28;20045;-85
2022/01/15 11:01:05;;;;;;;39.13;30.48;;;0.90;84.90;;;;;;5032047;28;20498;-86
2022/01/15 11:03:37;;;;;;;37.70;28.73;;;0.90;84.90;;;;;;5044571;28;20124;-86
2022/01/15 11:06:05;;;;;;;44.25;30.45;;;0.90;84.90;;;;;;5032215;28;20060;-87
2022/01/15 11:08:42;;;;;;;37.88;30.48;;;0.90;84.90;;;;;;5032530;28;20056;-86
2022/01/15 11:11:14;;;;;;;38.60;30.20;;;1.00;85.00;;;;;;5032684;28;20388;-87
2022/01/15 11:13:45;;;;;;;37.08;29.50;;;1.00;85.00;;;;;;5031762;28;20054;-86
2022/01/15 11:16:18;;;;;;;38.53;30.42;;;1.00;85.00;;;;;;5031056;28;20041;-86
2022/01/15 11:18:54;;;;;;;38.28;30.40;;;1.00;85.00;;;;;;5030136;28;20045;-85
2022/01/15 11:21:23;;;;;;;37.90;29.63;;;1.00;85.00;;;;;;5031219;28;20125;-85
2022/01/15 11:23:51;;;;;;;39.35;31.35;;;1.10;85.00;;;;;;5032561;28;20065;-85
2022/01/15 11:26:24;;;;;;;40.70;31.48;;;1.10;85.10;;;;;;5064430;28;20048;-86
2022/01/15 11:28:53;;;;;;;43.60;34.47;;;1.20;85.10;;;;;;5032711;28;20068;-85
2022/01/15 11:31:29;;;;;;;39.28;31.30;;;1.20;85.10;;;;;;5032996;28;20111;-85
2022/01/15 11:34:00;;;;;;;41.53;34.00;;;1.30;85.20;;;;;;5034994;28;20049;-85
2022/01/15 11:36:40;;;;;;;42.35;34.25;;;1.40;85.20;;;;;;5035941;28;20049;-85
2022/01/15 11:39:11;;;;;;;38.67;32.08;;;1.50;85.20;;;;;;5035942;28;20064;-85
2022/01/15 11:41:40;;;;;;;44.42;34.75;;;1.50;85.20;;;;;;5035936;28;20041;-85
2022/01/15 11:44:10;;;;;;;47.50;34.70;;;1.60;85.10;;;;;;5035785;28;20052;-85
2022/01/15 11:46:49;;;;;;;42.13;34.15;;;1.70;85.10;;;;;;5034661;28;20524;-85
2022/01/15 11:50:07;;;;;;;43.15;34.70;;;1.70;85.10;;;;;;5035656;28;20052;-86
2022/01/15 11:52:34;;;;;;;43.47;34.67;;;1.80;85.10;;;;;;5027073;28;20412;-85
2022/01/15 11:55:05;;;;;;;46.15;35.65;;;1.90;85.10;;;;;;5016925;28;20052;-85
2022/01/15 11:57:35;;;;;;;49.38;37.15;;;2.00;85.10;;;;;;5016684;28;20054;-85
2022/01/15 12:00:18;;;;;;;50.33;36.72;;;2.00;85.10;;;;;;5013946;28;20429;-85
2022/01/15 12:03:03;;;;;;;51.40;38.08;;;2.10;85.20;;;;;;5015122;28;20049;-85
2022/01/15 12:05:36;;;;;;;49.72;37.78;;;2.20;85.20;;;;;;5015415;28;20050;-85
2022/01/15 12:08:03;;;;;;;50.90;39.55;;;2.30;85.30;;;;;;5014950;28;20056;-85
2022/01/15 12:10:45;;;;;;;51.35;39.75;;;2.40;85.40;;;;;;5011070;28;20092;-86
2022/01/15 12:13:20;;;;;;;43.97;35.75;;;2.50;85.40;;;;;;5025346;28;20045;-86
2022/01/15 12:16:15;;;;;;;46.58;37.38;;;2.60;85.50;;;;;;5015354;28;20056;-86
2022/01/15 12:18:46;;;;;;;40.88;34.22;;;2.70;85.60;;;;;;5014324;28;20136;-85
2022/01/15 12:21:55;;;;;;;44.03;34.90;;;2.80;85.60;;;;;;5014995;28;20056;-85
2022/01/15 12:24:44;;;;;;;41.03;33.00;;;2.90;85.70;;;;;;5015029;28;20053;-85
2022/01/15 12:27:15;;;;;;;39.63;33.08;;;3.00;85.80;;;;;;5025532;28;20046;-85
2022/01/15 12:29:43;;;;;;;40.00;33.05;;;3.20;85.70;;;;;;5035073;28;20132;-85
2022/01/15 12:32:12;;;;;;;38.63;31.98;;;3.20;85.70;;;;;;5034503;28;20049;-86
2022/01/15 12:34:39;;;;;;;38.58;31.52;;;3.40;85.70;;;;;;5067125;28;20049;-86
2022/01/15 12:37:13;;;;;;;38.05;31.23;;;3.40;85.70;;;;;;5033868;28;20494;-86
2022/01/15 12:39:40;;;;;;;35.00;30.27;;;3.50;85.60;;;;;;5036061;28;20486;-86
2022/01/15 12:42:11;;;;;;;35.60;29.52;;;3.60;85.60;;;;;;5034489;28;20136;-85
2022/01/15 12:44:41;;;;;;;37.08;31.17;;;3.80;85.50;;;;;;5034566;28;20046;-85
2022/01/15 12:47:09;;;;;;;37.85;31.98;;;3.90;85.40;;;;;;5066214;28;20049;-85
2022/01/15 12:49:41;;;;;;;35.10;29.73;;;3.90;85.40;;;;;;5034763;28;20052;-85
2022/01/15 12:52:26;;;;;;;34.83;30.15;;;4.00;85.30;;;;;;5032638;28;20050;-85
2022/01/15 12:54:57;;;;;;;37.15;31.17;;;4.20;85.20;;;;;;5032067;28;20041;-86
2022/01/15 12:57:43;;;;;;;36.38;30.95;;;4.30;85.10;;;;;;5034319;28;20053;-86
2022/01/15 13:00:25;;;;;;;38.60;31.17;;;4.40;85.10;;;;;;5034447;28;20041;-85
2022/01/15 13:03:03;;;;;;;35.63;31.08;;;4.50;85.00;;;;;;5034389;28;20052;-85
2022/01/15 13:05:39;;;;;;;34.10;30.23;;;4.60;84.80;;;;;;5033080;28;20049;-86